createdAt,value
2018-06-03T00:00:58.335Z,41.23
2018-06-03T00:03:25.741Z,41.58
2018-06-03T00:05:53.036Z,43.10
2018-06-03T00:08:20.536Z,42.55
2018-06-03T00:10:48.046Z,45.30
2018-06-03T00:13:15.396Z,41.77
2018-06-03T00:15:42.773Z,40.33
2018-06-03T00:18:10.117Z,40.78
2018-06-03T00:20:43.305Z,44.67
2018-06-03T00:23:11.095Z,40.90
2018-06-03T00:25:38.878Z,40.17
2018-06-03T00:28:06.218Z,42.43
2018-06-03T00:30:38.091Z,40.92
2018-06-03T00:33:05.463Z,40.52
2018-06-03T00:35:37.293Z,47.20
2018-06-03T00:38:04.896Z,45.00
2018-06-03T00:40:32.324Z,44.53
2018-06-03T00:42:59.669Z,43.35
2018-06-03T00:45:26.992Z,46.23
2018-06-03T00:47:54.338Z,44.50
2018-06-03T00:50:21.736Z,42.40
2018-06-03T00:52:49.712Z,44.60
2018-06-03T00:55:17.194Z,46.73
2018-06-03T00:57:44.511Z,43.50
2018-06-03T01:00:12.522Z,42.15
2018-06-03T01:02:39.893Z,43.48
2018-06-03T01:05:07.671Z,41.25
2018-06-03T01:07:35.033Z,40.75
2018-06-03T01:10:02.332Z,38.70
2018-06-03T01:12:29.718Z,47.83
2018-06-03T01:14:57.010Z,46.05
2018-06-03T01:17:24.327Z,43.13
2018-06-03T01:19:51.651Z,41.70
2018-06-03T01:24:52.863Z,43.48
2018-06-03T01:27:20.298Z,42.08
2018-06-03T01:29:47.663Z,45.67
2018-06-03T01:32:14.996Z,46.48
2018-06-03T01:34:42.470Z,40.08
2018-06-03T01:37:09.795Z,31.65
2018-06-03T01:39:37.175Z,40.00
2018-06-03T01:42:04.578Z,44.50
2018-06-03T01:44:31.875Z,41.10
2018-06-03T01:46:59.292Z,37.25
2018-06-03T01:49:26.603Z,39.95
2018-06-03T01:52:00.454Z,38.60
2018-06-03T01:54:27.755Z,48.98
2018-06-03T01:57:00.246Z,42.13
2018-06-03T01:59:27.536Z,44.48
2018-06-03T02:01:54.881Z,42.65
2018-06-03T02:04:22.387Z,40.00
2018-06-03T02:06:49.752Z,43.70
2018-06-03T02:09:17.076Z,40.43
2018-06-03T02:11:44.371Z,45.98
2018-06-03T02:14:11.697Z,40.78
2018-06-03T02:16:38.983Z,38.65
2018-06-03T02:19:06.280Z,42.27
2018-06-03T02:21:33.619Z,44.38
2018-06-03T02:24:00.942Z,45.20
2018-06-03T02:26:28.293Z,45.43
2018-06-03T02:28:55.610Z,44.65
2018-06-03T02:31:23.231Z,48.52
2018-06-03T02:33:50.775Z,44.42
2018-06-03T02:36:18.131Z,41.45
2018-06-03T02:38:46.249Z,44.18
2018-06-03T02:41:13.582Z,46.33
2018-06-03T02:43:40.964Z,43.60
2018-06-03T02:46:08.287Z,42.75
2018-06-03T02:48:35.659Z,44.73
2018-06-03T02:51:03.003Z,46.92
2018-06-03T02:53:30.290Z,46.60
2018-06-03T02:55:57.634Z,44.58
2018-06-03T02:58:25.480Z,47.08
2018-06-03T03:00:52.832Z,45.38
2018-06-03T03:03:21.064Z,43.58
2018-06-03T03:05:48.426Z,45.23
2018-06-03T03:08:16.299Z,46.33
2018-06-03T03:10:44.162Z,49.15
2018-06-03T03:13:11.467Z,47.15
2018-06-03T03:18:12.179Z,52.83
2018-06-03T03:20:40.236Z,45.75
2018-06-03T03:23:07.619Z,48.02
2018-06-03T03:25:35.128Z,46.40
2018-06-03T03:28:02.432Z,44.15
2018-06-03T03:30:29.759Z,45.58
2018-06-03T03:32:57.760Z,48.85
2018-06-03T03:35:25.156Z,50.60
2018-06-03T03:37:53.173Z,51.28
2018-06-03T03:40:20.513Z,48.13
2018-06-03T03:42:47.883Z,48.40
2018-06-03T03:45:15.199Z,48.50
2018-06-03T03:47:42.530Z,45.98
2018-06-03T03:50:09.912Z,46.50
2018-06-03T03:52:37.267Z,54.85
2018-06-03T03:55:04.711Z,46.08
2018-06-03T03:57:32.052Z,43.68
2018-06-03T03:59:59.381Z,47.58
2018-06-03T04:02:26.739Z,51.30
2018-06-03T04:07:27.650Z,48.13
2018-06-03T04:09:54.986Z,49.98
2018-06-03T04:12:22.410Z,47.90
2018-06-03T04:14:49.758Z,52.75
2018-06-03T04:17:17.150Z,54.27
2018-06-03T04:19:44.481Z,50.83
2018-06-03T04:22:11.831Z,55.55
2018-06-03T04:24:40.554Z,53.70
2018-06-03T04:27:07.847Z,52.70
2018-06-03T04:29:35.172Z,55.33
2018-06-03T04:32:02.971Z,55.52
2018-06-03T04:34:30.274Z,53.33
2018-06-03T04:36:57.668Z,58.13
2018-06-03T04:39:25.016Z,56.25
2018-06-03T04:41:52.366Z,55.50
2018-06-03T04:44:19.694Z,52.38
2018-06-03T04:46:47.077Z,57.67
2018-06-03T04:49:14.408Z,55.35
2018-06-03T04:51:41.886Z,56.65
2018-06-03T04:54:09.239Z,56.10
2018-06-03T04:56:37.018Z,60.10
2018-06-03T04:59:04.318Z,55.05
2018-06-03T05:01:32.379Z,56.73
2018-06-03T05:03:59.743Z,59.33
2018-06-03T05:06:27.095Z,58.85
2018-06-03T05:08:54.746Z,51.10
2018-06-03T05:11:26.327Z,55.10
2018-06-03T05:13:53.605Z,52.27
2018-06-03T05:16:21.524Z,58.42
2018-06-03T05:18:53.302Z,55.95
2018-06-03T05:21:20.650Z,59.90
2018-06-03T05:23:48.005Z,54.83
2018-06-03T05:26:15.303Z,52.67
2018-06-03T05:28:42.629Z,56.60
2018-06-03T05:31:09.923Z,61.15
2018-06-03T05:33:37.428Z,58.75
2018-06-03T05:36:04.768Z,56.25
2018-06-03T05:38:32.146Z,57.95
2018-06-03T05:40:59.786Z,56.77
2018-06-03T05:43:27.103Z,57.40
2018-06-03T05:45:54.484Z,57.20
2018-06-03T05:48:21.778Z,60.15
2018-06-03T05:50:49.078Z,53.30
2018-06-03T05:53:20.226Z,58.55
2018-06-03T05:55:47.578Z,63.28
2018-06-03T05:58:15.081Z,58.13
2018-06-03T06:00:42.392Z,55.03
2018-06-03T06:03:09.934Z,56.73
2018-06-03T06:05:37.487Z,59.67
2018-06-03T06:08:04.838Z,53.23
2018-06-03T06:10:32.197Z,52.20
2018-06-03T06:12:59.506Z,55.33
2018-06-03T06:15:26.879Z,52.63
2018-06-03T06:17:54.231Z,56.10
2018-06-03T06:20:21.563Z,50.87
2018-06-03T06:22:48.864Z,54.47
2018-06-03T06:25:16.235Z,51.60
2018-06-03T06:27:47.752Z,51.50
2018-06-03T06:30:18.789Z,51.00
2018-06-03T06:32:46.103Z,50.97
2018-06-03T06:35:13.536Z,49.60
2018-06-03T06:37:40.917Z,46.80
2018-06-03T06:40:08.242Z,45.17
2018-06-03T06:42:35.518Z,43.83
2018-06-03T06:45:02.834Z,38.47
2018-06-03T06:50:03.686Z,42.10
2018-06-03T06:52:30.954Z,41.23
2018-06-03T07:00:05.117Z,45.27
2018-06-03T07:02:32.491Z,45.30
2018-06-03T07:04:59.784Z,39.17
2018-06-03T07:07:27.091Z,42.30
2018-06-03T07:09:54.401Z,40.50
2018-06-03T07:12:22.305Z,41.43
2018-06-03T07:14:49.554Z,40.30
2018-06-03T07:17:16.876Z,43.00
2018-06-03T07:19:44.230Z,43.83
2018-06-03T07:22:11.555Z,45.90
2018-06-03T07:24:38.867Z,45.07
2018-06-03T07:27:06.161Z,45.13
2018-06-03T07:29:33.500Z,44.00
2018-06-03T07:32:00.932Z,45.77
2018-06-03T07:34:28.203Z,44.40
2018-06-03T07:36:55.504Z,41.70
2018-06-03T07:39:22.788Z,44.90
2018-06-03T07:41:53.955Z,42.53
2018-06-03T07:44:21.280Z,40.60
2018-06-03T07:46:48.842Z,43.10
2018-06-03T07:49:16.169Z,42.87
2018-06-03T07:51:43.522Z,38.87
2018-06-03T07:54:10.830Z,38.87
2018-06-03T07:59:18.085Z,42.70
2018-06-03T08:01:45.427Z,42.50
2018-06-03T08:04:12.735Z,44.73
2018-06-03T08:06:40.031Z,47.37
2018-06-03T08:09:07.688Z,43.60
2018-06-03T08:11:34.956Z,45.37
2018-06-03T08:14:02.265Z,45.20
2018-06-03T08:16:29.587Z,44.13
2018-06-03T08:18:56.976Z,46.37
2018-06-03T08:21:24.315Z,43.90
2018-06-03T08:23:51.959Z,42.57
2018-06-03T08:26:19.263Z,42.70
2018-06-03T08:28:46.600Z,43.83
2018-06-03T08:31:13.929Z,50.63
2018-06-03T08:33:41.218Z,40.17
2018-06-03T08:36:08.520Z,40.23
2018-06-03T08:38:35.914Z,43.07
2018-06-03T08:41:03.264Z,43.50
2018-06-03T08:43:30.589Z,44.77
2018-06-03T08:45:57.900Z,42.20
2018-06-03T08:48:25.278Z,44.40
2018-06-03T08:50:52.732Z,41.10
2018-06-03T08:53:20.125Z,43.33
2018-06-03T08:55:47.517Z,44.30
2018-06-03T08:58:14.849Z,44.80
2018-06-03T09:00:42.128Z,46.37
2018-06-03T09:03:09.433Z,42.53
2018-06-03T09:05:36.727Z,44.30
2018-06-03T09:08:04.053Z,44.20
2018-06-03T09:10:31.420Z,43.07
2018-06-03T09:12:58.752Z,48.60
2018-06-03T09:15:26.174Z,44.30
2018-06-03T09:17:53.479Z,47.23
2018-06-03T09:22:59.692Z,45.23
2018-06-03T09:25:26.997Z,49.77
2018-06-03T09:27:54.342Z,46.87
2018-06-03T09:30:21.691Z,45.70
2018-06-03T09:32:49.004Z,50.13
2018-06-03T09:35:16.378Z,48.30
2018-06-03T09:37:43.710Z,45.97
2018-06-03T09:40:11.022Z,43.27
2018-06-03T09:42:38.342Z,46.43
2018-06-03T09:45:05.697Z,44.10
2018-06-03T09:47:33.037Z,46.80
2018-06-03T09:50:00.766Z,44.90
2018-06-03T09:52:28.344Z,46.43
2018-06-03T09:54:55.723Z,48.33
2018-06-03T09:57:27.085Z,43.13
2018-06-03T09:59:54.897Z,44.47
2018-06-03T10:02:22.390Z,45.07
2018-06-03T10:04:49.964Z,46.67
2018-06-03T10:07:17.811Z,47.00
2018-06-03T10:09:45.244Z,45.80
2018-06-03T10:12:12.922Z,45.30
2018-06-03T10:14:41.684Z,43.67
2018-06-03T10:17:09.056Z,47.27
2018-06-03T10:19:40.653Z,42.70
2018-06-03T10:22:08.042Z,43.30
2018-06-03T10:24:35.420Z,45.67
2018-06-03T10:27:03.175Z,45.40
2018-06-03T10:29:31.039Z,43.03
2018-06-03T10:44:58.561Z,45.40
2018-06-03T10:47:25.937Z,43.77
2018-06-03T10:49:53.360Z,45.40
2018-06-03T10:52:20.725Z,44.40
2018-06-03T10:54:56.333Z,41.80
2018-06-03T10:57:23.752Z,42.27
2018-06-03T10:59:51.226Z,45.10
2018-06-03T11:02:23.237Z,44.93
2018-06-03T11:04:50.614Z,47.90
2018-06-03T11:07:17.984Z,45.17
2018-06-03T11:09:45.704Z,45.30
2018-06-03T11:12:13.350Z,41.40
2018-06-03T11:14:40.735Z,40.60
2018-06-03T11:17:08.235Z,36.40
2018-06-03T11:19:39.220Z,36.33
2018-06-03T11:22:06.787Z,36.17
2018-06-03T11:24:34.243Z,38.80
2018-06-03T11:27:01.622Z,40.40
2018-06-03T11:29:28.999Z,39.10
2018-06-03T11:31:56.295Z,40.50
2018-06-03T11:34:26.852Z,33.93
2018-06-03T11:36:54.625Z,37.23
2018-06-03T11:39:22.049Z,35.87
2018-06-03T11:41:53.452Z,35.80
2018-06-03T11:44:21.190Z,32.20
2018-06-03T11:46:48.614Z,34.70
2018-06-03T11:49:15.954Z,32.33
2018-06-03T11:51:44.361Z,32.07
2018-06-03T11:54:11.670Z,35.57
2018-06-03T11:56:44.760Z,36.40
2018-06-03T11:59:17.718Z,33.60
2018-06-03T12:01:45.524Z,31.33
2018-06-03T12:04:13.221Z,33.93
2018-06-03T12:06:40.689Z,32.37
2018-06-03T12:09:08.039Z,31.30
2018-06-03T12:11:35.782Z,31.00
2018-06-03T12:14:04.011Z,32.73
2018-06-03T12:16:31.375Z,32.30
2018-06-03T12:18:58.759Z,29.43
2018-06-03T12:21:36.842Z,29.40
2018-06-03T12:24:04.245Z,29.70
2018-06-03T12:26:31.638Z,28.30
2018-06-03T12:28:59.720Z,28.47
2018-06-03T12:31:30.965Z,29.13
2018-06-03T12:33:58.354Z,29.87
2018-06-03T12:36:25.695Z,27.97
2018-06-03T12:38:53.599Z,28.40
2018-06-03T12:41:20.919Z,28.33
2018-06-03T12:43:49.033Z,26.57
2018-06-03T12:46:17.011Z,25.33
2018-06-03T12:48:44.405Z,28.30
2018-06-03T12:51:12.760Z,26.47
2018-06-03T12:53:40.612Z,23.67
2018-06-03T12:56:08.174Z,24.83
2018-06-03T12:58:39.956Z,25.63
2018-06-03T13:01:08.568Z,25.63
2018-06-03T13:03:36.012Z,27.73
2018-06-03T13:06:03.944Z,29.63
2018-06-03T13:08:31.405Z,27.37
2018-06-03T13:10:58.811Z,22.30
2018-06-03T13:13:26.234Z,24.20
2018-06-03T13:15:54.646Z,25.20
2018-06-03T13:18:22.593Z,27.33
2018-06-03T13:20:49.891Z,23.40
2018-06-03T13:23:21.672Z,25.00
2018-06-03T13:25:49.072Z,23.30
2018-06-03T13:28:20.882Z,26.20
2018-06-03T13:30:48.669Z,23.90
2018-06-03T13:33:16.140Z,25.40
2018-06-03T13:35:43.499Z,24.23
2018-06-03T13:38:15.143Z,27.43
2018-06-03T13:40:43.324Z,27.47
2018-06-03T13:43:10.774Z,28.03
2018-06-03T13:45:38.185Z,26.70
2018-06-03T13:48:05.691Z,26.47
2018-06-03T14:00:18.099Z,26.17
2018-06-03T14:02:45.483Z,25.37
2018-06-03T14:05:12.876Z,26.07
2018-06-03T14:07:40.411Z,25.87
2018-06-03T14:10:11.422Z,24.30
2018-06-03T14:12:38.780Z,22.97
2018-06-03T14:15:06.157Z,22.63
2018-06-03T14:17:34.467Z,21.97
2018-06-03T14:20:01.876Z,23.87
2018-06-03T14:22:29.287Z,22.93
2018-06-03T14:24:56.757Z,22.90
2018-06-03T14:27:24.173Z,22.67
2018-06-03T14:29:51.625Z,22.90
2018-06-03T14:32:19.007Z,23.00
2018-06-03T14:34:50.374Z,21.50
2018-06-03T14:37:17.807Z,24.53
2018-06-03T14:39:45.253Z,22.37
2018-06-03T14:42:12.656Z,24.97
2018-06-03T14:44:44.656Z,21.83
2018-06-03T14:47:12.689Z,22.30
2018-06-03T14:49:40.089Z,21.73
2018-06-03T14:52:08.188Z,24.30
2018-06-03T14:54:35.546Z,22.00
2018-06-03T14:57:06.700Z,22.60
2018-06-03T14:59:34.709Z,24.23
2018-06-03T15:04:35.409Z,20.93
2018-06-03T15:07:03.478Z,20.20
2018-06-03T15:09:31.815Z,20.53
2018-06-03T15:11:59.289Z,19.50
2018-06-03T15:14:26.778Z,19.83
2018-06-03T15:16:54.387Z,20.87
2018-06-03T15:19:21.743Z,19.40
2018-06-03T15:21:49.146Z,19.10
2018-06-03T15:24:16.569Z,21.80
2018-06-03T15:26:44.605Z,18.73
2018-06-03T15:29:12.035Z,20.70
2018-06-03T15:31:39.418Z,21.73
2018-06-03T15:34:11.287Z,22.17
2018-06-03T15:36:38.786Z,21.83
2018-06-03T15:39:07.320Z,19.27
2018-06-03T15:41:34.655Z,20.67
2018-06-03T15:44:02.031Z,19.60
2018-06-03T15:46:29.756Z,19.33
2018-06-03T15:48:57.155Z,19.50
2018-06-03T15:51:24.470Z,19.43
2018-06-03T15:53:52.878Z,20.37
2018-06-03T15:56:20.290Z,20.00
2018-06-03T15:58:47.688Z,18.97
2018-06-03T16:01:15.007Z,19.90
2018-06-03T16:03:42.351Z,20.13
2018-06-03T16:06:09.723Z,19.07
2018-06-03T16:08:37.082Z,19.13
2018-06-03T16:11:04.600Z,20.30
2018-06-03T16:13:32.277Z,23.73
2018-06-03T16:15:59.667Z,20.13
2018-06-03T16:18:26.972Z,20.60
2018-06-03T16:20:54.354Z,20.30
2018-06-03T16:23:21.813Z,20.10
2018-06-03T16:25:49.239Z,20.83
2018-06-03T16:28:16.646Z,19.40
2018-06-03T16:30:44.070Z,24.13
2018-06-03T16:33:11.521Z,19.60
2018-06-03T16:35:38.905Z,19.67
2018-06-03T16:38:06.345Z,20.90
2018-06-03T16:40:34.089Z,21.43
2018-06-03T16:45:34.437Z,22.60
2018-06-03T16:48:01.817Z,22.03
2018-06-03T16:50:29.144Z,23.63
2018-06-03T16:52:56.544Z,21.63
2018-06-03T16:55:23.950Z,22.77
2018-06-03T16:57:51.304Z,24.30
2018-06-03T17:02:55.400Z,20.53
2018-06-03T17:05:22.858Z,21.40
2018-06-03T17:07:50.205Z,24.17
2018-06-03T17:10:17.567Z,20.37
2018-06-03T17:12:46.019Z,22.60
2018-06-03T17:15:13.417Z,20.43
2018-06-03T17:17:40.755Z,19.83
2018-06-03T17:20:08.205Z,23.03
2018-06-03T17:22:35.749Z,19.80
2018-06-03T17:25:03.119Z,19.43
2018-06-03T17:27:30.440Z,19.07
2018-06-03T17:30:01.075Z,20.43
2018-06-03T17:32:28.428Z,20.03
2018-06-03T17:34:59.357Z,19.83
2018-06-03T17:37:26.699Z,19.57
2018-06-03T17:39:57.440Z,20.97
2018-06-03T17:42:24.837Z,22.23
2018-06-03T17:44:52.952Z,20.50
2018-06-03T17:47:22.261Z,19.37
2018-06-03T17:49:49.640Z,20.93
2018-06-03T17:52:17.090Z,20.67
2018-06-03T17:54:44.603Z,19.50
2018-06-03T17:57:12.114Z,19.47
2018-06-03T17:59:39.973Z,20.37
2018-06-03T18:02:11.660Z,20.37
2018-06-03T18:04:39.257Z,20.00
2018-06-03T18:07:11.243Z,21.70
2018-06-03T18:09:38.691Z,20.57
2018-06-03T18:12:06.383Z,21.83
2018-06-03T18:14:33.849Z,20.33
2018-06-03T18:17:03.316Z,21.33
2018-06-03T18:19:30.781Z,20.37
2018-06-03T18:22:03.414Z,21.57
2018-06-03T18:24:30.861Z,21.50
2018-06-03T18:26:58.330Z,23.27
2018-06-03T18:29:25.735Z,21.67
2018-06-03T18:31:53.151Z,20.40
2018-06-03T18:34:20.596Z,21.53
2018-06-03T18:36:48.668Z,20.50
2018-06-03T18:39:16.113Z,21.13
2018-06-03T18:41:44.353Z,20.53
2018-06-03T18:44:11.982Z,22.17
2018-06-03T18:46:39.540Z,20.67
2018-06-03T18:49:06.932Z,21.80
2018-06-03T18:51:34.377Z,20.60
2018-06-03T18:54:02.624Z,21.27
2018-06-03T18:56:30.106Z,23.20
2018-06-03T18:58:58.132Z,24.50
2018-06-03T19:01:25.519Z,22.80
2018-06-03T19:03:53.409Z,22.60
2018-06-03T19:06:20.863Z,23.90
2018-06-03T19:08:48.382Z,22.50
2018-06-03T19:11:15.840Z,21.30
2018-06-03T19:13:43.343Z,22.43
2018-06-03T19:16:10.721Z,23.67
2018-06-03T19:18:38.396Z,22.23
2018-06-03T19:21:09.682Z,22.43
2018-06-03T19:23:37.569Z,22.27
2018-06-03T19:26:08.784Z,21.83
2018-06-03T19:28:36.372Z,22.40
2018-06-03T19:31:03.800Z,23.80
2018-06-03T19:33:31.255Z,22.83
2018-06-03T19:35:59.266Z,23.50
2018-06-03T19:38:27.283Z,24.30
2018-06-03T19:40:55.841Z,25.00
2018-06-03T19:43:23.293Z,25.83
2018-06-03T19:45:51.800Z,23.10
2018-06-03T19:48:19.319Z,24.50
2018-06-03T19:50:46.793Z,23.70
2018-06-03T19:53:14.230Z,23.33
2018-06-03T19:55:41.822Z,25.00
2018-06-03T19:58:09.378Z,24.40
2018-06-03T20:00:36.935Z,22.07
2018-06-03T20:03:08.944Z,22.90
2018-06-03T20:05:36.669Z,24.77
2018-06-03T20:08:04.185Z,22.10
2018-06-03T20:13:04.929Z,22.33
2018-06-03T20:15:32.403Z,20.63
2018-06-03T20:17:59.754Z,22.70
2018-06-03T20:20:27.907Z,23.40
2018-06-03T20:22:55.798Z,26.20
2018-06-03T20:25:23.604Z,25.20
2018-06-03T20:27:51.626Z,22.73
2018-06-03T20:30:19.299Z,25.23
2018-06-03T20:32:47.001Z,22.00
2018-06-03T20:35:14.754Z,23.90
2018-06-03T21:23:59.971Z,26.02
2018-06-03T21:26:27.450Z,25.35
2018-06-03T21:28:59.214Z,23.47
2018-06-03T21:31:26.943Z,25.02
2018-06-03T21:33:59.606Z,27.02
2018-06-03T21:36:27.734Z,27.05
2018-06-03T21:38:59.752Z,36.53
2018-06-03T21:41:27.873Z,27.95
2018-06-03T21:43:55.955Z,26.05
2018-06-03T21:46:23.394Z,28.83
2018-06-03T21:48:55.333Z,26.20
2018-06-03T21:51:23.611Z,26.33
2018-06-03T21:53:53.728Z,26.73
2018-06-03T21:56:22.164Z,26.65
2018-06-03T21:58:49.572Z,26.80
2018-06-03T22:01:21.533Z,26.95
2018-06-03T22:03:49.805Z,28.15
2018-06-03T22:06:22.067Z,27.17
2018-06-03T22:08:49.583Z,26.85
2018-06-03T22:11:17.557Z,26.60
2018-06-03T22:13:45.421Z,28.42
2018-06-03T22:16:17.582Z,27.27
2018-06-03T22:18:45.280Z,28.32
2018-06-03T22:21:15.524Z,27.15
2018-06-03T22:23:43.261Z,28.40
2018-06-03T22:26:10.703Z,28.27
2018-06-03T22:28:43.007Z,27.40
2018-06-03T22:31:10.443Z,25.50
2018-06-03T22:33:37.945Z,27.67
2018-06-03T22:36:07.439Z,28.00
2018-06-03T22:38:35.395Z,29.82
2018-06-03T22:41:05.299Z,28.70
2018-06-03T22:43:32.746Z,27.77
2018-06-03T22:46:07.644Z,39.67
2018-06-03T22:48:35.303Z,26.60
2018-06-03T22:51:04.538Z,26.33
2018-06-03T22:53:31.924Z,29.70
2018-06-03T22:56:03.306Z,31.50
2018-06-03T22:58:31.044Z,32.65
2018-06-03T23:00:59.122Z,32.45
2018-06-03T23:03:27.851Z,30.77
2018-06-03T23:05:56.166Z,35.03
2018-06-03T23:08:23.582Z,29.57
2018-06-03T23:10:51.590Z,27.58
2018-06-03T23:13:18.951Z,31.75
2018-06-03T23:15:48.082Z,26.57
2018-06-03T23:18:15.451Z,27.40
2018-06-03T23:20:42.777Z,29.23
2018-06-03T23:23:15.017Z,29.95
2018-06-03T23:25:46.881Z,27.93
2018-06-03T23:28:16.004Z,29.52
2018-06-03T23:30:43.444Z,32.58
2018-06-03T23:33:11.615Z,30.30
2018-06-03T23:35:40.118Z,31.02
2018-06-03T23:38:09.066Z,31.97
2018-06-03T23:40:40.775Z,29.52
2018-06-03T23:43:12.669Z,33.10
2018-06-03T23:45:40.140Z,35.25
2018-06-03T23:48:07.674Z,31.85
2018-06-03T23:50:39.012Z,31.75
2018-06-03T23:53:10.900Z,33.25
